KOYM

St Marys Municipal Airport

St Marys, Pennsylvania, USA
METAR KOYM 182135Z AUTO 02006KT 10SM BKN040 BKN095 22/14 A2997 RMK AO2
Observed Flight Rules
Aug-18 @ 21:35 UTC (19 minutes ago) Visual Flight Rules
Wind Visibility Clouds
20° at 6 knots 10 miles
  • Broken at 4,000' AGL
  • Broken at 9,500' AGL
Temperatures Readings
Current 22°C / 72°F
Dewpoint 14°C / 57°F
Humidity 61%
Altimeter 29.97" Hg
Pressure 1015 hPa
Elevation 590
METAR KOYM 182135Z AUTO 02006KT 10SM BKN040 BKN095 22/14 A2997 RMK AO2
Observed Flight Rules
Aug-18 @ 21:35 UTC
(19 minutes ago)
VFR
Wind Visibility
20° at 6 knots 10 miles
Clouds
  • Broken at 4,000' AGL
  • Broken at 9,500' AGL
Temperature Dewpoint
22°C / 72°F 14°C / 57°F
Humidity Altimeter Pressure
61% 29.97" Hg 1015 hPa